Terminal Aerodrome Forecast
Issued by NWS

Home | Current Version | Previous Version | Graphics & Text | Print | Product List | Glossary On
Versions: 1 2 3 4 5 6 7 8 9 10 11 12 13 14 15 16 17 18 19 20 21
000
FTUS43 KMPX 262300
TAFAXN
TAF
KAXN 262325Z 2700/2724 36010KT P6SM OVC015
     FM270400 34006KT P6SM OVC009
     FM271000 30006KT P6SM OVC014
     FM271500 29007KT P6SM SCT015 BKN050
     FM271800 26008KT P6SM SCT050=

USA.gov is the U.S. government's official web portal to all federal, state and local government web resources and services.